Time;durP1;ratioP1;P1;durP2;ratioP2;P2;SDS_P1;SDS_P2;PMS_P1;PMS_P2;Temp;Humidity;BMP_temperature;BMP_pressure;BME280_temperature;BME280_humidity;BME280_pressure;Samples;Min_cycle;Max_cycle;Signal;HPM_P1;HPM_P2
2022/12/08 00:01:08;;;;;;;18.27;10.75;;;1.90;99.90;;;;;;5048542;28;20094;-80
2022/12/08 00:03:34;;;;;;;19.65;11.00;;;1.80;99.90;;;;;;5046986;28;20057;-79
2022/12/08 00:11:31;;;;;;;19.13;10.85;;;1.90;99.90;;;;;;5042511;28;20551;-79
2022/12/08 00:13:57;;;;;;;24.20;11.55;;;1.80;99.90;;;;;;5013761;28;20029;-79
2022/12/08 00:16:22;;;;;;;22.10;11.50;;;1.80;99.90;;;;;;5047953;28;20040;-79
2022/12/08 00:18:48;;;;;;;23.20;11.52;;;1.80;99.90;;;;;;5032998;28;20043;-79
2022/12/08 00:21:14;;;;;;;19.80;11.07;;;1.90;99.90;;;;;;5050989;28;20115;-80
2022/12/08 00:23:40;;;;;;;18.88;10.75;;;1.80;99.90;;;;;;5032818;28;20041;-79
2022/12/08 00:26:06;;;;;;;24.58;11.18;;;1.80;99.90;;;;;;5037810;28;20033;-79
2022/12/08 00:28:33;;;;;;;23.30;11.75;;;1.80;99.90;;;;;;5033747;28;20037;-78
2022/12/08 00:31:05;;;;;;;21.50;11.15;;;1.80;99.90;;;;;;5036283;28;20461;-79
2022/12/08 00:33:31;;;;;;;19.95;11.10;;;1.80;99.90;;;;;;5047652;28;20040;-79
2022/12/08 00:35:57;;;;;;;19.85;11.48;;;1.80;99.90;;;;;;5035994;28;20021;-79
2022/12/08 00:38:22;;;;;;;20.33;10.90;;;1.80;99.90;;;;;;5051488;28;20657;-79
2022/12/08 00:40:48;;;;;;;20.52;10.98;;;1.80;99.90;;;;;;5018222;28;20057;-79
2022/12/08 00:43:14;;;;;;;20.17;11.43;;;1.80;99.90;;;;;;5049466;28;20037;-79
2022/12/08 00:45:40;;;;;;;18.50;10.73;;;1.80;99.90;;;;;;5049822;28;20036;-79
2022/12/08 00:48:06;;;;;;;20.40;11.20;;;1.80;99.90;;;;;;5016179;28;20048;-79
2022/12/08 00:50:32;;;;;;;23.40;10.73;;;1.90;99.90;;;;;;5050221;28;20025;-79
2022/12/08 00:52:58;;;;;;;21.85;12.65;;;1.80;99.90;;;;;;5050201;28;20394;-78
2022/12/08 00:55:23;;;;;;;19.05;11.10;;;1.80;99.90;;;;;;4999695;28;20091;-79
2022/12/08 00:57:49;;;;;;;21.05;11.38;;;1.80;99.90;;;;;;5049763;28;20044;-79
2022/12/08 01:00:15;;;;;;;22.05;11.80;;;1.90;99.90;;;;;;5031794;28;20132;-79
2022/12/08 01:02:41;;;;;;;24.88;13.27;;;1.90;99.90;;;;;;5016678;28;20056;-79
2022/12/08 01:05:07;;;;;;;21.80;11.63;;;2.00;99.90;;;;;;5012630;28;20609;-79
2022/12/08 01:07:33;;;;;;;23.20;12.68;;;2.00;99.90;;;;;;5049115;28;20152;-79
2022/12/08 01:09:59;;;;;;;21.75;11.95;;;1.90;99.90;;;;;;5049970;28;20040;-79
2022/12/08 01:12:25;;;;;;;23.38;12.13;;;2.00;99.90;;;;;;5047721;28;20568;-79
2022/12/08 01:14:50;;;;;;;23.80;12.02;;;1.90;99.90;;;;;;5050375;28;20032;-79
2022/12/08 01:17:16;;;;;;;23.42;11.70;;;1.90;99.90;;;;;;5016265;28;20025;-79
2022/12/08 01:19:42;;;;;;;23.60;12.60;;;1.90;99.90;;;;;;5013023;28;20115;-79
2022/12/08 01:22:08;;;;;;;22.00;12.38;;;2.00;99.90;;;;;;5024105;28;20033;-79
2022/12/08 01:24:33;;;;;;;25.88;13.27;;;1.90;99.90;;;;;;5050224;28;20104;-79
2022/12/08 01:26:59;;;;;;;26.33;12.32;;;1.90;99.90;;;;;;5050210;28;20128;-79
2022/12/08 01:29:26;;;;;;;22.27;11.82;;;1.90;99.90;;;;;;5034828;28;20375;-79
2022/12/08 01:31:52;;;;;;;21.75;11.50;;;1.90;99.90;;;;;;5021801;28;20029;-79
2022/12/08 01:34:17;;;;;;;23.00;11.93;;;1.90;99.90;;;;;;5013140;28;20022;-79
2022/12/08 01:36:43;;;;;;;22.40;11.73;;;1.90;99.90;;;;;;5036427;28;20025;-79
2022/12/08 01:39:14;;;;;;;21.40;11.18;;;1.90;99.90;;;;;;5047061;28;20550;-79
2022/12/08 01:41:42;;;;;;;22.88;12.07;;;1.90;99.90;;;;;;5043421;28;20087;-79
2022/12/08 01:44:09;;;;;;;24.90;12.05;;;1.90;99.90;;;;;;5032405;28;20036;-78
2022/12/08 01:46:38;;;;;;;22.73;12.23;;;1.90;99.90;;;;;;5033427;28;20029;-79
2022/12/08 01:49:05;;;;;;;21.73;11.23;;;1.90;99.90;;;;;;5024146;28;20425;-78
2022/12/08 01:51:37;;;;;;;20.75;11.40;;;1.90;99.90;;;;;;5039297;28;20029;-79
2022/12/08 01:54:05;;;;;;;21.90;11.90;;;1.80;99.90;;;;;;5043898;28;20040;-79
2022/12/08 01:56:40;;;;;;;21.63;11.13;;;1.80;99.90;;;;;;5049719;28;20102;-78
2022/12/08 01:59:09;;;;;;;26.05;12.50;;;1.80;99.90;;;;;;5029829;28;20740;-79
2022/12/08 02:01:35;;;;;;;26.15;12.88;;;1.80;99.90;;;;;;5029619;28;20554;-79
2022/12/08 02:04:03;;;;;;;22.15;12.15;;;1.80;99.90;;;;;;5016752;28;20112;-79
2022/12/08 02:06:34;;;;;;;24.30;12.75;;;1.70;99.90;;;;;;5010893;28;20040;-79
2022/12/08 02:09:02;;;;;;;23.38;11.73;;;1.80;99.90;;;;;;5011780;28;20046;-79
2022/12/08 02:11:28;;;;;;;22.95;11.27;;;1.80;99.90;;;;;;5039854;28;20086;-79
2022/12/08 02:13:56;;;;;;;24.20;12.02;;;1.70;99.90;;;;;;5027813;28;20091;-79
2022/12/08 02:16:43;;;;;;;24.38;12.55;;;1.70;99.90;;;;;;5039187;28;20768;-79
2022/12/08 02:19:36;;;;;;;25.63;13.60;;;1.80;99.90;;;;;;5031998;28;20036;-79
2022/12/08 02:22:37;;;;;;;27.23;13.05;;;1.80;99.90;;;;;;5044307;28;20040;-79
2022/12/08 02:25:32;;;;;;;26.27;11.95;;;1.80;99.90;;;;;;4974193;28;20041;-79
2022/12/08 02:28:20;;;;;;;21.27;11.53;;;1.80;99.90;;;;;;4957412;28;20286;-79
2022/12/08 02:31:13;;;;;;;24.60;11.48;;;1.80;99.90;;;;;;5043096;28;20386;-79
2022/12/08 02:34:08;;;;;;;24.48;11.50;;;1.80;99.90;;;;;;5046452;28;20468;-79
2022/12/08 02:36:49;;;;;;;25.10;12.25;;;1.80;99.90;;;;;;5029674;28;20048;-78
2022/12/08 02:39:23;;;;;;;21.90;11.60;;;1.80;99.90;;;;;;5036112;28;20144;-79
2022/12/08 02:41:58;;;;;;;26.23;12.90;;;1.80;99.90;;;;;;5032415;28;20021;-78
2022/12/08 02:44:43;;;;;;;21.53;11.10;;;1.80;99.90;;;;;;5043098;28;20056;-78
2022/12/08 02:47:15;;;;;;;27.25;14.88;;;1.80;99.90;;;;;;5034706;28;20481;-79
2022/12/08 02:49:41;;;;;;;27.15;11.73;;;1.80;99.90;;;;;;5018413;28;20118;-80
2022/12/08 02:52:10;;;;;;;21.50;11.85;;;1.80;99.90;;;;;;5034776;28;20594;-79
2022/12/08 02:54:39;;;;;;;30.17;13.73;;;1.70;99.90;;;;;;5052194;28;20032;-80
2022/12/08 02:57:17;;;;;;;23.73;12.27;;;1.70;99.90;;;;;;5030778;28;20072;-79
2022/12/08 02:59:49;;;;;;;23.90;12.20;;;1.70;99.90;;;;;;5043233;28;20029;-79
2022/12/08 03:02:33;;;;;;;25.45;11.52;;;1.80;99.90;;;;;;5034151;28;20033;-80
2022/12/08 03:05:14;;;;;;;25.08;13.27;;;1.70;99.90;;;;;;5031325;28;20110;-80
2022/12/08 03:07:44;;;;;;;29.65;12.52;;;1.70;99.90;;;;;;5032208;28;20124;-79
2022/12/08 03:10:32;;;;;;;22.73;12.32;;;1.70;99.90;;;;;;5029114;28;20045;-79
2022/12/08 03:13:05;;;;;;;21.25;11.13;;;1.70;99.90;;;;;;5035352;28;20428;-79
2022/12/08 03:15:32;;;;;;;29.20;13.45;;;1.60;99.90;;;;;;5032747;28;20049;-80
2022/12/08 03:17:59;;;;;;;23.55;12.75;;;1.60;99.90;;;;;;5034047;28;20548;-80
2022/12/08 03:20:28;;;;;;;22.38;11.90;;;1.60;99.90;;;;;;5017489;28;20041;-79
2022/12/08 03:22:57;;;;;;;25.67;13.30;;;1.60;99.90;;;;;;5050417;28;20098;-80
2022/12/08 03:25:25;;;;;;;22.75;11.35;;;1.60;99.90;;;;;;5017132;28;20068;-79
2022/12/08 03:27:52;;;;;;;26.88;13.00;;;1.60;99.90;;;;;;5046659;28;20033;-80
2022/12/08 03:30:18;;;;;;;26.23;12.00;;;1.60;99.90;;;;;;5025995;28;20093;-80
2022/12/08 03:32:52;;;;;;;24.80;13.45;;;1.50;99.90;;;;;;5050659;28;20035;-79
2022/12/08 03:35:31;;;;;;;24.90;12.75;;;1.50;99.90;;;;;;5050593;28;20029;-80
2022/12/08 03:38:06;;;;;;;30.83;14.27;;;1.50;99.90;;;;;;5050323;28;20123;-79
2022/12/08 03:40:32;;;;;;;27.73;13.70;;;1.60;99.90;;;;;;5050359;28;20048;-80
2022/12/08 03:42:58;;;;;;;26.85;12.43;;;1.60;99.90;;;;;;5037742;28;20029;-79
2022/12/08 03:45:23;;;;;;;27.95;13.68;;;1.60;99.90;;;;;;5016656;28;20140;-80
2022/12/08 03:47:50;;;;;;;27.42;13.43;;;1.60;99.90;;;;;;5017515;28;20382;-79
2022/12/08 03:50:16;;;;;;;31.58;14.52;;;1.60;99.90;;;;;;5032911;28;20548;-79
2022/12/08 03:52:42;;;;;;;28.23;14.68;;;1.60;99.90;;;;;;5032577;28;20104;-80
2022/12/08 03:55:08;;;;;;;30.42;14.32;;;1.60;99.90;;;;;;5042483;28;20029;-79
2022/12/08 03:57:34;;;;;;;29.30;14.82;;;1.60;99.90;;;;;;5046097;28;20033;-80
2022/12/08 03:59:59;;;;;;;28.45;14.05;;;1.50;99.90;;;;;;5013543;28;20039;-79
2022/12/08 04:02:25;;;;;;;28.50;14.15;;;1.50;99.90;;;;;;5016804;28;20071;-79
2022/12/08 04:04:51;;;;;;;27.85;13.52;;;1.60;99.90;;;;;;5017001;28;20094;-80
2022/12/08 04:07:17;;;;;;;27.08;13.95;;;1.50;99.90;;;;;;5047611;28;20033;-80
2022/12/08 04:09:43;;;;;;;28.08;13.88;;;1.50;99.90;;;;;;5007796;28;20641;-79
2022/12/08 04:12:09;;;;;;;30.50;14.20;;;1.40;99.90;;;;;;5026293;28;20108;-79
2022/12/08 04:14:35;;;;;;;28.92;14.18;;;1.40;99.90;;;;;;5033531;28;20049;-80
2022/12/08 04:17:01;;;;;;;26.98;14.20;;;1.40;99.90;;;;;;5051342;28;20074;-79
2022/12/08 04:19:26;;;;;;;28.38;13.48;;;1.40;99.90;;;;;;5013261;28;20041;-80
2022/12/08 04:21:52;;;;;;;30.17;14.95;;;1.40;99.90;;;;;;5038512;28;20033;-80
2022/12/08 04:24:18;;;;;;;30.63;14.70;;;1.50;99.90;;;;;;5032924;28;20033;-80
2022/12/08 04:26:44;;;;;;;28.80;13.93;;;1.40;99.90;;;;;;5020341;28;20033;-80
2022/12/08 04:29:10;;;;;;;31.67;15.23;;;1.40;99.90;;;;;;5016239;28;20037;-80
2022/12/08 04:31:36;;;;;;;32.50;14.75;;;1.40;99.90;;;;;;5027296;28;20560;-79
2022/12/08 04:34:02;;;;;;;27.00;14.18;;;1.40;99.90;;;;;;5063112;28;20036;-80
2022/12/08 04:36:28;;;;;;;28.60;13.40;;;1.40;99.90;;;;;;5034400;28;20037;-80
2022/12/08 04:38:54;;;;;;;27.77;13.43;;;1.40;99.90;;;;;;5031145;28;20036;-80
2022/12/08 04:41:19;;;;;;;28.17;14.60;;;1.40;99.90;;;;;;5033617;28;20505;-80
2022/12/08 04:43:45;;;;;;;23.92;13.85;;;1.40;99.90;;;;;;5012950;28;20079;-79
2022/12/08 04:46:11;;;;;;;26.50;13.68;;;1.40;99.90;;;;;;5032627;28;20516;-80
2022/12/08 04:48:38;;;;;;;26.33;13.38;;;1.40;99.90;;;;;;5000133;28;20126;-79
2022/12/08 04:51:04;;;;;;;27.33;14.15;;;1.30;99.90;;;;;;5037632;28;20098;-80
2022/12/08 04:53:30;;;;;;;34.63;14.20;;;1.30;99.90;;;;;;5043851;28;20080;-80
2022/12/08 04:55:56;;;;;;;28.20;12.85;;;1.40;99.90;;;;;;5016036;28;20032;-80
2022/12/08 04:58:21;;;;;;;28.10;14.63;;;1.30;99.90;;;;;;5012994;28;20044;-80
2022/12/08 05:00:47;;;;;;;30.98;14.65;;;1.30;99.90;;;;;;5005498;28;20468;-80
2022/12/08 05:03:14;;;;;;;27.33;13.45;;;1.30;99.90;;;;;;5015651;28;20035;-79
2022/12/08 05:05:41;;;;;;;26.60;13.75;;;1.30;99.90;;;;;;5033023;28;20397;-80
2022/12/08 05:08:08;;;;;;;30.73;13.73;;;1.30;99.90;;;;;;5050530;28;20025;-80
2022/12/08 05:10:34;;;;;;;30.77;15.75;;;1.30;99.90;;;;;;5032181;28;20068;-78
2022/12/08 05:13:00;;;;;;;31.48;14.90;;;1.40;99.90;;;;;;5011887;28;20108;-78
2022/12/08 05:15:26;;;;;;;31.67;14.05;;;1.30;99.90;;;;;;5008490;28;20033;-78
2022/12/08 05:17:52;;;;;;;30.33;15.30;;;1.30;99.90;;;;;;5039229;28;20103;-78
2022/12/08 05:20:17;;;;;;;32.30;14.95;;;1.30;99.90;;;;;;5030735;28;20060;-78
2022/12/08 05:22:43;;;;;;;34.97;17.25;;;1.30;99.90;;;;;;5033770;28;20032;-78
2022/12/08 05:25:09;;;;;;;35.08;17.00;;;1.30;99.90;;;;;;5014323;28;20034;-80
2022/12/08 05:27:35;;;;;;;33.70;16.33;;;1.40;99.90;;;;;;5050951;28;20040;-79
2022/12/08 05:30:01;;;;;;;34.10;15.60;;;1.40;99.90;;;;;;5051145;28;20032;-80
2022/12/08 05:32:27;;;;;;;35.15;16.48;;;1.40;99.90;;;;;;5051132;28;20075;-80
2022/12/08 05:34:53;;;;;;;33.72;16.77;;;1.40;99.90;;;;;;5030727;28;20040;-80
2022/12/08 05:37:18;;;;;;;36.00;16.70;;;1.30;99.90;;;;;;5047686;28;20033;-79
2022/12/08 05:39:44;;;;;;;37.40;16.25;;;1.30;99.90;;;;;;5001382;28;20100;-78
2022/12/08 05:42:10;;;;;;;37.55;17.33;;;1.30;99.90;;;;;;5033138;28;20036;-79
2022/12/08 05:44:36;;;;;;;37.53;16.38;;;1.30;99.90;;;;;;5016606;28;20038;-78
2022/12/08 05:47:02;;;;;;;41.13;18.52;;;1.30;99.90;;;;;;5046206;28;20029;-78
2022/12/08 05:49:28;;;;;;;38.92;17.73;;;1.30;99.90;;;;;;5045795;28;20102;-79
2022/12/08 05:51:53;;;;;;;34.88;16.27;;;1.30;99.90;;;;;;5023151;28;20046;-78
2022/12/08 05:54:19;;;;;;;36.55;16.40;;;1.30;99.90;;;;;;5030704;28;20094;-80
2022/12/08 05:56:45;;;;;;;32.72;16.15;;;1.30;99.90;;;;;;5014109;28;20044;-79
2022/12/08 05:59:10;;;;;;;34.80;15.55;;;1.30;99.90;;;;;;5031089;28;20033;-77
2022/12/08 06:01:36;;;;;;;34.55;15.85;;;1.30;99.90;;;;;;5027956;28;20041;-77
2022/12/08 06:04:03;;;;;;;37.35;16.23;;;1.30;99.90;;;;;;5011727;28;20045;-78
2022/12/08 06:06:30;;;;;;;33.65;16.40;;;1.30;99.90;;;;;;5005346;28;20128;-78
2022/12/08 06:08:56;;;;;;;33.13;16.10;;;1.30;99.90;;;;;;5028759;28;20143;-78
2022/12/08 06:11:27;;;;;;;33.05;16.17;;;1.30;99.90;;;;;;5039519;28;20602;-78
2022/12/08 06:13:55;;;;;;;34.85;17.23;;;1.30;99.90;;;;;;5055491;28;20134;-77
2022/12/08 06:16:21;;;;;;;39.97;17.45;;;1.40;99.90;;;;;;5036849;28;20025;-78
2022/12/08 06:18:47;;;;;;;34.30;16.30;;;1.40;99.90;;;;;;5047949;28;20024;-77
2022/12/08 06:21:14;;;;;;;35.22;16.42;;;1.40;99.90;;;;;;5031986;28;20501;-78
2022/12/08 06:23:41;;;;;;;42.97;16.95;;;1.30;99.90;;;;;;5047037;28;20044;-77
2022/12/08 06:26:10;;;;;;;35.72;15.68;;;1.30;99.90;;;;;;5031627;28;20370;-78
2022/12/08 06:28:36;;;;;;;36.78;15.68;;;1.30;99.90;;;;;;5042765;28;20033;-78
2022/12/08 06:31:12;;;;;;;31.67;14.93;;;1.30;99.90;;;;;;5033690;28;20505;-78
2022/12/08 06:33:38;;;;;;;32.33;16.27;;;1.30;99.90;;;;;;5040079;28;20034;-78
2022/12/08 06:36:05;;;;;;;35.08;15.20;;;1.30;99.90;;;;;;5026213;28;20025;-78
2022/12/08 06:38:30;;;;;;;35.85;16.38;;;1.30;99.90;;;;;;5046837;28;20037;-77
2022/12/08 06:40:58;;;;;;;33.17;16.27;;;1.30;99.90;;;;;;5031177;28;20405;-77
2022/12/08 06:43:25;;;;;;;34.70;16.00;;;1.30;99.90;;;;;;5013478;28;20583;-77
2022/12/08 06:45:51;;;;;;;36.72;14.98;;;1.30;99.90;;;;;;5031371;28;20045;-78
2022/12/08 06:48:18;;;;;;;33.17;14.88;;;1.30;99.90;;;;;;5029464;28;20036;-78
2022/12/08 06:50:44;;;;;;;32.78;15.00;;;1.30;99.90;;;;;;5030864;28;20029;-77
2022/12/08 06:53:11;;;;;;;34.38;15.98;;;1.30;99.90;;;;;;5035579;28;20048;-77
2022/12/08 06:55:46;;;;;;;34.47;15.52;;;1.30;99.90;;;;;;5014184;28;20398;-77
2022/12/08 06:58:13;;;;;;;36.63;15.82;;;1.40;99.90;;;;;;5029353;28;20039;-78
2022/12/08 07:00:39;;;;;;;32.58;14.85;;;1.30;99.90;;;;;;5047479;28;20114;-78
2022/12/08 07:03:07;;;;;;;33.08;15.55;;;1.30;99.90;;;;;;5041103;28;20600;-77
2022/12/08 07:05:33;;;;;;;35.22;16.13;;;1.30;99.90;;;;;;5009984;28;20033;-78
2022/12/08 07:07:59;;;;;;;31.30;14.77;;;1.30;99.90;;;;;;5033238;28;20045;-77
2022/12/08 07:10:25;;;;;;;33.65;14.50;;;1.30;99.90;;;;;;5029752;28;20097;-78
2022/12/08 07:12:50;;;;;;;31.17;14.52;;;1.30;99.90;;;;;;5031215;28;20024;-78
2022/12/08 07:15:16;;;;;;;28.42;15.32;;;1.30;99.90;;;;;;5012141;28;20045;-76
2022/12/08 07:17:42;;;;;;;32.90;16.38;;;1.30;99.90;;;;;;5046773;28;20029;-77
2022/12/08 07:20:08;;;;;;;30.42;14.82;;;1.30;99.90;;;;;;5029445;28;20031;-78
2022/12/08 07:22:33;;;;;;;31.80;15.27;;;1.30;99.90;;;;;;5046477;28;20084;-78
2022/12/08 07:24:59;;;;;;;32.78;14.68;;;1.30;99.90;;;;;;5013204;28;20033;-78
2022/12/08 07:27:25;;;;;;;31.15;15.00;;;1.30;99.90;;;;;;5049154;28;20143;-78
2022/12/08 07:29:51;;;;;;;28.40;13.63;;;1.30;99.90;;;;;;5033550;28;20033;-79
2022/12/08 07:32:17;;;;;;;32.83;15.02;;;1.30;99.90;;;;;;5017098;28;20677;-78
2022/12/08 07:34:42;;;;;;;30.92;14.43;;;1.40;99.90;;;;;;5039852;28;20037;-78
2022/12/08 07:37:08;;;;;;;29.17;14.25;;;1.40;99.90;;;;;;5036883;28;20033;-77
2022/12/08 07:39:34;;;;;;;28.48;13.07;;;1.40;99.90;;;;;;5028669;28;20029;-78
2022/12/08 07:42:00;;;;;;;29.20;13.25;;;1.40;99.90;;;;;;5032881;28;20037;-78
2022/12/08 07:44:26;;;;;;;31.10;14.50;;;1.40;99.90;;;;;;5018821;28;20040;-78
2022/12/08 07:46:52;;;;;;;31.38;15.43;;;1.40;99.90;;;;;;5034427;28;20906;-78
2022/12/08 07:49:17;;;;;;;28.75;14.18;;;1.40;99.90;;;;;;5051186;28;20065;-78
2022/12/08 07:51:43;;;;;;;30.90;14.65;;;1.40;99.90;;;;;;5032708;28;20043;-79
2022/12/08 07:54:12;;;;;;;28.05;14.80;;;1.40;99.90;;;;;;5029745;28;20355;-78
2022/12/08 07:56:38;;;;;;;26.30;13.73;;;1.40;99.90;;;;;;5033159;28;20810;-78
2022/12/08 07:59:04;;;;;;;33.10;15.98;;;1.50;99.90;;;;;;5033385;28;20029;-77
2022/12/08 08:01:32;;;;;;;32.55;15.60;;;1.50;99.90;;;;;;5047678;28;20037;-77
2022/12/08 08:04:03;;;;;;;31.20;15.07;;;1.50;99.90;;;;;;5030631;28;20650;-79
2022/12/08 08:06:31;;;;;;;36.90;16.05;;;1.50;99.90;;;;;;5017247;28;20037;-77
2022/12/08 08:08:57;;;;;;;35.80;15.32;;;1.50;99.90;;;;;;5050819;28;20021;-78
2022/12/08 08:11:22;;;;;;;28.45;14.52;;;1.50;99.90;;;;;;5016000;28;20048;-78
2022/12/08 08:13:49;;;;;;;36.78;16.00;;;1.50;99.90;;;;;;5016216;28;20029;-77
2022/12/08 08:16:16;;;;;;;37.20;15.90;;;1.50;99.90;;;;;;5021284;28;20036;-76
2022/12/08 08:18:45;;;;;;;32.30;14.15;;;1.50;99.90;;;;;;5050990;28;20103;-78
2022/12/08 08:21:10;;;;;;;33.42;14.63;;;1.50;99.90;;;;;;5049519;28;20037;-77
2022/12/08 08:23:36;;;;;;;36.00;15.77;;;1.50;99.90;;;;;;5030898;28;20056;-78
2022/12/08 08:26:04;;;;;;;34.25;14.98;;;1.50;99.90;;;;;;5032247;28;20037;-78
2022/12/08 08:28:30;;;;;;;31.45;15.68;;;1.60;99.90;;;;;;5050072;28;20028;-78
2022/12/08 08:30:56;;;;;;;36.47;15.50;;;1.50;99.90;;;;;;5050031;28;20450;-79
2022/12/08 08:33:22;;;;;;;27.17;14.02;;;1.50;99.90;;;;;;5037724;28;20104;-79
2022/12/08 08:35:47;;;;;;;29.55;13.50;;;1.60;99.90;;;;;;5048763;28;20040;-78
2022/12/08 08:38:13;;;;;;;26.80;13.80;;;1.50;99.90;;;;;;5051058;28;20068;-79
2022/12/08 08:40:39;;;;;;;27.50;12.35;;;1.60;99.90;;;;;;5032911;28;20033;-79
2022/12/08 08:43:05;;;;;;;26.05;12.93;;;1.50;99.90;;;;;;5031186;28;20044;-78
2022/12/08 08:45:32;;;;;;;23.00;12.10;;;1.50;99.90;;;;;;5034589;28;20128;-79
2022/12/08 08:47:58;;;;;;;24.55;11.90;;;1.50;99.90;;;;;;5032424;28;20079;-79
2022/12/08 08:50:24;;;;;;;19.73;11.02;;;1.40;99.90;;;;;;5032091;28;20485;-78
2022/12/08 08:52:50;;;;;;;21.00;11.50;;;1.50;99.90;;;;;;5021739;28;20037;-79
2022/12/08 08:55:16;;;;;;;24.70;12.43;;;1.50;99.90;;;;;;5038563;28;20040;-79
2022/12/08 08:57:43;;;;;;;23.90;12.02;;;1.50;99.90;;;;;;5042153;28;20057;-78
2022/12/08 09:00:10;;;;;;;21.60;12.00;;;1.60;99.90;;;;;;5027891;28;20582;-79
2022/12/08 09:02:37;;;;;;;25.45;11.75;;;1.60;99.90;;;;;;5032578;28;20124;-79
2022/12/08 09:05:04;;;;;;;21.80;10.98;;;1.60;99.90;;;;;;5033064;28;20065;-81
2022/12/08 09:07:31;;;;;;;26.75;13.27;;;1.50;99.90;;;;;;5055712;28;20032;-80
2022/12/08 09:09:57;;;;;;;21.00;11.48;;;1.50;99.90;;;;;;5028161;28;20029;-79
2022/12/08 09:12:22;;;;;;;26.23;12.10;;;1.50;99.90;;;;;;5034399;28;20768;-79
2022/12/08 09:14:48;;;;;;;20.83;10.65;;;1.50;99.90;;;;;;5027842;28;20119;-79
2022/12/08 09:17:14;;;;;;;24.98;12.50;;;1.60;99.90;;;;;;5028859;28;20572;-79
2022/12/08 09:19:40;;;;;;;23.35;11.90;;;1.60;99.90;;;;;;5028460;28;20040;-79
2022/12/08 09:22:06;;;;;;;26.02;11.77;;;1.70;99.90;;;;;;5045868;28;20037;-79
2022/12/08 09:24:31;;;;;;;23.90;12.68;;;1.70;99.90;;;;;;5029433;28;20037;-78
2022/12/08 09:26:57;;;;;;;19.83;11.23;;;1.80;99.90;;;;;;5045321;28;20124;-79
2022/12/08 09:29:24;;;;;;;21.52;10.68;;;1.80;99.90;;;;;;5038532;28;20095;-79
2022/12/08 09:31:49;;;;;;;23.58;12.48;;;1.80;99.90;;;;;;5023996;28;20031;-78
2022/12/08 09:34:15;;;;;;;20.10;11.27;;;1.90;99.90;;;;;;5008458;28;20033;-79
2022/12/08 09:36:41;;;;;;;22.92;11.57;;;1.90;99.90;;;;;;5025739;28;20029;-78
2022/12/08 09:39:07;;;;;;;22.25;12.00;;;1.90;99.90;;;;;;5010606;28;20120;-79
2022/12/08 09:41:44;;;;;;;21.40;11.57;;;1.90;99.90;;;;;;5025919;28;20507;-79
2022/12/08 09:44:22;;;;;;;23.67;12.00;;;1.80;99.90;;;;;;5043532;28;20041;-79
2022/12/08 09:46:51;;;;;;;23.27;11.70;;;1.80;99.90;;;;;;5019562;28;20040;-79
2022/12/08 09:49:27;;;;;;;24.33;11.88;;;1.80;99.90;;;;;;5027472;28;20029;-78
2022/12/08 09:51:53;;;;;;;23.42;11.82;;;1.80;99.90;;;;;;5043090;28;20029;-79
2022/12/08 09:54:30;;;;;;;22.88;12.23;;;1.80;99.90;;;;;;5026436;28;20033;-78
2022/12/08 09:56:59;;;;;;;25.00;12.32;;;1.80;99.90;;;;;;5029570;28;20037;-79
2022/12/08 09:59:32;;;;;;;23.15;11.80;;;1.80;99.90;;;;;;5033103;28;20136;-79
2022/12/08 10:01:59;;;;;;;20.95;12.15;;;1.80;99.90;;;;;;5012567;28;20036;-79
2022/12/08 10:04:33;;;;;;;30.10;12.48;;;1.70;99.90;;;;;;5048140;28;20037;-78
2022/12/08 10:07:24;;;;;;;25.83;12.65;;;1.70;99.90;;;;;;5049450;28;20440;-79
2022/12/08 10:10:01;;;;;;;22.85;12.40;;;1.60;99.90;;;;;;4989628;28;20044;-79
2022/12/08 10:12:50;;;;;;;22.83;11.77;;;1.60;99.90;;;;;;5034402;28;20032;-78
2022/12/08 10:15:31;;;;;;;25.73;12.65;;;1.60;99.90;;;;;;5014255;28;20025;-78
2022/12/08 10:18:00;;;;;;;25.05;11.55;;;1.60;99.90;;;;;;5032623;28;20032;-78
2022/12/08 10:20:36;;;;;;;28.13;13.40;;;1.60;99.90;;;;;;5032514;28;20704;-79
2022/12/08 10:23:20;;;;;;;;;;;1.50;99.90;;;;;;5049223;28;20044;-77
2022/12/08 10:26:12;;;;;;;26.80;12.48;;;1.50;99.90;;;;;;5031657;28;19991;-79
2022/12/08 10:28:38;;;;;;;29.80;13.55;;;1.50;99.90;;;;;;5037003;28;20048;-78
2022/12/08 10:31:04;;;;;;;23.73;12.30;;;1.60;99.90;;;;;;5046852;28;20037;-78
2022/12/08 10:33:32;;;;;;;26.42;12.45;;;1.60;99.90;;;;;;5017249;28;20119;-78
2022/12/08 10:36:01;;;;;;;21.50;11.02;;;1.60;99.90;;;;;;5027754;28;20723;-77
2022/12/08 10:38:32;;;;;;;25.23;13.15;;;1.60;99.90;;;;;;5049310;28;20025;-78
2022/12/08 10:41:10;;;;;;;28.10;12.27;;;1.70;99.90;;;;;;5049209;28;20108;-78
2022/12/08 10:43:59;;;;;;;25.92;12.68;;;1.80;99.90;;;;;;5049016;28;20083;-78
2022/12/08 10:46:27;;;;;;;25.00;12.70;;;1.80;99.90;;;;;;5029521;28;20025;-77
2022/12/08 10:49:08;;;;;;;23.83;12.70;;;1.90;99.90;;;;;;5045212;28;20055;-78
2022/12/08 10:51:40;;;;;;;22.60;12.75;;;1.90;99.90;;;;;;5044401;28;20025;-78
2022/12/08 10:54:27;;;;;;;22.00;11.40;;;2.00;99.90;;;;;;5022238;28;20509;-77
2022/12/08 10:56:55;;;;;;;23.20;12.52;;;2.00;99.90;;;;;;5037432;28;20481;-79
2022/12/08 10:59:21;;;;;;;25.27;12.38;;;2.00;99.90;;;;;;5047163;28;20043;-78
2022/12/08 11:01:48;;;;;;;21.42;12.52;;;2.10;99.90;;;;;;5048416;28;20029;-78
2022/12/08 11:04:18;;;;;;;23.83;12.43;;;2.10;99.90;;;;;;5031047;28;20041;-78
2022/12/08 11:06:46;;;;;;;22.92;12.60;;;2.20;99.90;;;;;;5044195;28;20036;-77
2022/12/08 11:09:24;;;;;;;27.27;12.85;;;2.30;99.90;;;;;;5032555;28;20163;-78
2022/12/08 11:12:00;;;;;;;21.80;11.93;;;2.30;99.90;;;;;;5038594;28;20037;-80
2022/12/08 11:14:45;;;;;;;24.52;12.27;;;2.30;99.90;;;;;;5031780;28;20569;-77
2022/12/08 11:17:23;;;;;;;22.80;12.10;;;2.20;99.90;;;;;;5035509;28;20033;-76
2022/12/08 11:19:59;;;;;;;23.10;12.57;;;2.20;99.90;;;;;;5052890;28;20024;-77
2022/12/08 11:22:32;;;;;;;24.15;12.30;;;2.20;99.90;;;;;;5032099;28;20056;-77
2022/12/08 11:25:24;;;;;;;22.65;11.45;;;2.30;99.90;;;;;;5041580;28;20033;-78
2022/12/08 11:27:52;;;;;;;23.58;11.90;;;2.30;99.90;;;;;;5032925;28;20059;-78
2022/12/08 11:30:24;;;;;;;20.33;11.88;;;2.30;99.90;;;;;;5028944;28;20028;-78
2022/12/08 11:33:12;;;;;;;23.10;12.52;;;2.30;99.90;;;;;;5052020;28;20540;-77
2022/12/08 11:35:42;;;;;;;22.85;12.18;;;2.30;99.90;;;;;;5043998;28;20389;-78
2022/12/08 11:38:20;;;;;;;22.58;12.60;;;2.20;99.90;;;;;;5046598;28;20396;-78
2022/12/08 11:40:48;;;;;;;25.85;12.85;;;2.20;99.90;;;;;;5019213;28;20048;-78
2022/12/08 11:43:29;;;;;;;24.23;12.57;;;2.20;99.90;;;;;;5014633;28;20029;-77
2022/12/08 11:45:59;;;;;;;27.70;12.88;;;2.20;99.90;;;;;;5027194;28;20067;-77
2022/12/08 11:48:49;;;;;;;27.05;12.98;;;2.10;99.90;;;;;;5045530;28;20033;-78
2022/12/08 11:51:31;;;;;;;20.33;11.55;;;2.10;99.90;;;;;;5034467;28;20061;-78
2022/12/08 11:53:59;;;;;;;24.25;12.48;;;2.00;99.90;;;;;;5052131;28;20025;-78
2022/12/08 11:56:31;;;;;;;25.17;12.10;;;2.10;99.90;;;;;;5051975;28;20033;-78
2022/12/08 11:59:00;;;;;;;29.35;13.52;;;2.10;99.90;;;;;;5045361;28;20056;-78
2022/12/08 12:01:26;;;;;;;22.05;12.48;;;2.10;99.90;;;;;;5051287;28;20122;-77
2022/12/08 12:04:16;;;;;;;25.85;13.75;;;2.20;99.90;;;;;;5042575;28;20041;-77
2022/12/08 12:06:57;;;;;;;24.10;12.77;;;2.30;99.90;;;;;;5045443;28;20481;-79
2022/12/08 12:09:50;;;;;;;26.13;12.88;;;2.30;99.90;;;;;;5052287;28;20033;-78
2022/12/08 12:12:40;;;;;;;24.02;12.75;;;2.40;99.90;;;;;;5038424;28;20052;-78
2022/12/08 12:15:18;;;;;;;23.27;12.30;;;2.40;99.90;;;;;;5033773;28;20104;-78
2022/12/08 12:17:53;;;;;;;24.10;13.10;;;2.50;99.90;;;;;;5033688;28;20168;-78
2022/12/08 12:20:30;;;;;;;22.15;12.77;;;2.50;99.90;;;;;;5050766;28;20110;-77
2022/12/08 12:23:07;;;;;;;25.27;12.57;;;2.60;99.90;;;;;;5045279;28;20040;-78
2022/12/08 12:25:35;;;;;;;21.73;12.38;;;2.60;99.90;;;;;;5042718;28;20048;-78
2022/12/08 12:28:10;;;;;;;22.02;11.68;;;2.60;99.90;;;;;;5044409;28;20037;-77
2022/12/08 12:30:57;;;;;;;23.23;12.95;;;2.70;99.90;;;;;;5016510;28;20695;-78
2022/12/08 12:33:23;;;;;;;21.25;12.15;;;2.80;99.90;;;;;;5011696;28;20061;-77
2022/12/08 12:35:49;;;;;;;21.00;11.85;;;2.80;99.90;;;;;;5017368;28;20018;-77
2022/12/08 12:41:54;;;;;;;23.25;12.65;;;2.80;99.90;;;;;;5045306;28;20103;-77
2022/12/08 12:44:37;;;;;;;21.27;12.20;;;2.80;99.90;;;;;;5047637;28;20046;-77
2022/12/08 12:47:08;;;;;;;20.02;11.43;;;2.70;99.90;;;;;;5030637;28;20063;-77
2022/12/08 12:49:44;;;;;;;21.38;12.10;;;2.70;99.90;;;;;;5013802;28;20030;-77
2022/12/08 12:52:19;;;;;;;24.13;12.18;;;2.60;99.90;;;;;;5047294;28;20072;-78
2022/12/08 12:55:07;;;;;;;21.97;12.87;;;2.70;99.90;;;;;;5051085;28;20024;-77
2022/12/08 12:57:38;;;;;;;26.70;12.73;;;2.70;99.90;;;;;;5041854;28;20047;-77
2022/12/08 13:00:04;;;;;;;23.42;13.07;;;2.70;99.90;;;;;;5044425;28;20035;-78